createdAt,value
2016-11-13T00:01:14.236Z,35.9
2016-11-13T00:06:18.313Z,35.9
2016-11-13T00:11:22.404Z,35.9
2016-11-13T00:16:26.813Z,35.9
2016-11-13T00:21:31.228Z,35.9
2016-11-13T00:26:35.310Z,35.9
2016-11-13T00:31:39.730Z,35.9
2016-11-13T00:36:44.148Z,35.9
2016-11-13T00:41:48.227Z,35.8
2016-11-13T00:46:52.313Z,35.7
2016-11-13T00:51:56.392Z,35.9
2016-11-13T00:57:00.469Z,35.8
2016-11-13T01:02:04.886Z,35.8
2016-11-13T01:07:08.961Z,35.8
2016-11-13T01:12:13.706Z,35.7
2016-11-13T01:17:17.785Z,35.7
2016-11-13T01:22:21.865Z,35.7
2016-11-13T01:27:26.279Z,35.7
2016-11-13T01:32:30.691Z,35.7
2016-11-13T01:37:35.104Z,35.7
2016-11-13T01:42:39.527Z,35.7
2016-11-13T01:47:43.607Z,35.7
2016-11-13T01:52:47.689Z,35.6
2016-11-13T01:57:51.773Z,35.6
2016-11-13T02:02:55.849Z,35.5
2016-11-13T02:08:00.261Z,35.5
2016-11-13T02:13:04.342Z,35.5
2016-11-13T02:18:08.416Z,35.4
2016-11-13T02:23:12.498Z,35.3
2016-11-13T02:28:16.914Z,35.3
2016-11-13T02:33:20.990Z,35.4
2016-11-13T02:38:25.078Z,35.3
2016-11-13T02:43:29.833Z,35.3
2016-11-13T02:48:34.251Z,35.3
2016-11-13T02:53:38.658Z,35.3
2016-11-13T02:58:42.740Z,35.3
2016-11-13T03:03:46.816Z,35.3
2016-11-13T03:08:51.227Z,35.3
2016-11-13T03:13:55.305Z,35.2
2016-11-13T03:18:59.390Z,35.3
2016-11-13T03:24:03.808Z,35.2
2016-11-13T03:29:08.234Z,35.3
2016-11-13T03:34:12.646Z,35.3
2016-11-13T03:39:17.060Z,35.2
2016-11-13T03:44:21.136Z,35.1
2016-11-13T03:49:25.214Z,35.1
2016-11-13T03:54:29.302Z,35.1
2016-11-13T03:59:33.716Z,35.1
2016-11-13T04:04:38.475Z,35
2016-11-13T04:09:42.897Z,35
2016-11-13T04:14:47.314Z,35.1
2016-11-13T04:19:51.740Z,35
2016-11-13T04:24:55.824Z,35.1
2016-11-13T04:30:00.238Z,35.1
2016-11-13T04:35:04.314Z,35
2016-11-13T04:40:08.399Z,35.1
2016-11-13T04:45:13.481Z,35.1
2016-11-13T04:50:17.570Z,35.1
2016-11-13T04:55:22.328Z,35.1
2016-11-13T05:00:26.415Z,35.1
2016-11-13T05:05:30.492Z,35.1
2016-11-13T05:10:34.578Z,35.1
2016-11-13T05:15:38.986Z,35.1
2016-11-13T05:20:43.069Z,35.1
2016-11-13T05:25:47.493Z,35
2016-11-13T05:30:51.579Z,34.9
2016-11-13T05:35:55.672Z,34.9
2016-11-13T05:41:00.092Z,34.9
2016-11-13T05:46:04.171Z,35
2016-11-13T05:51:08.594Z,35
2016-11-13T05:56:13.018Z,35
2016-11-13T06:01:17.435Z,35
2016-11-13T06:06:22.523Z,34.9
2016-11-13T06:11:26.597Z,34.9
2016-11-13T06:16:31.690Z,34.8
2016-11-13T06:21:36.104Z,34.9
2016-11-13T06:26:40.179Z,34.9
2016-11-13T06:31:44.927Z,34.9
2016-11-13T06:36:49.009Z,34.9
2016-11-13T06:41:53.091Z,34.9
2016-11-13T06:46:57.507Z,34.9
2016-11-13T06:52:01.596Z,34.9
2016-11-13T06:57:06.681Z,34.9
2016-11-13T07:02:10.765Z,34.9
2016-11-13T07:07:14.845Z,34.9
2016-11-13T07:12:19.594Z,34.9
2016-11-13T07:17:23.674Z,34.9
2016-11-13T07:22:27.753Z,34.9
2016-11-13T07:27:32.183Z,35
2016-11-13T07:32:36.263Z,34.9
2016-11-13T07:37:40.681Z,34.9
2016-11-13T07:42:44.767Z,35
2016-11-13T07:47:48.851Z,35.1
2016-11-13T07:52:52.945Z,35
2016-11-13T07:57:57.033Z,35
2016-11-13T08:03:02.129Z,35
2016-11-13T08:08:06.284Z,35
2016-11-13T08:13:10.367Z,35.6
2016-11-13T08:18:14.801Z,36.6
2016-11-13T08:23:19.224Z,36.9
2016-11-13T08:28:23.712Z,36.6
2016-11-13T08:33:28.139Z,36.1
2016-11-13T08:38:32.453Z,35.4
2016-11-13T08:43:37.381Z,34.7
2016-11-13T08:48:41.860Z,33.8
2016-11-13T08:53:45.943Z,33.4
2016-11-13T08:58:50.370Z,33.3
2016-11-13T09:03:54.788Z,33.4
2016-11-13T09:08:59.211Z,34.2
2016-11-13T09:14:03.300Z,35.5
2016-11-13T09:19:07.378Z,36.1
2016-11-13T09:24:11.802Z,35.7
2016-11-13T09:29:15.895Z,35.2
2016-11-13T09:34:19.974Z,34.9
2016-11-13T09:39:24.403Z,34.7
2016-11-13T09:44:28.904Z,34.6
2016-11-13T09:49:32.990Z,34.5
2016-11-13T09:54:37.412Z,34.8
2016-11-13T09:59:41.492Z,35
2016-11-13T10:04:45.912Z,35.7
2016-11-13T10:09:50.340Z,36.7
2016-11-13T10:14:54.427Z,37
2016-11-13T10:19:58.521Z,37
2016-11-13T10:25:02.616Z,36.9
2016-11-13T10:30:07.042Z,36.9
2016-11-13T10:35:11.462Z,36.9
2016-11-13T10:40:16.217Z,36.7
2016-11-13T10:45:20.301Z,36.7
2016-11-13T10:50:24.720Z,36.6
2016-11-13T10:55:29.475Z,36.4
2016-11-13T11:00:34.251Z,36.5
2016-11-13T11:05:38.682Z,36.6
2016-11-13T11:10:42.771Z,36.8
2016-11-13T11:15:46.857Z,36.8
2016-11-13T11:20:51.275Z,37.4
2016-11-13T11:25:55.712Z,35.4
2016-11-13T11:31:00.143Z,34.4
2016-11-13T11:36:04.225Z,33.8
2016-11-13T11:41:08.664Z,33.6
2016-11-13T11:46:12.984Z,33.6
2016-11-13T11:51:17.439Z,33.8
2016-11-13T11:56:21.525Z,34.1
2016-11-13T12:01:25.956Z,34.7
2016-11-13T12:06:30.106Z,35.4
2016-11-13T12:11:34.185Z,35.4
2016-11-13T12:16:38.600Z,34.9
2016-11-13T12:21:42.693Z,34.7
2016-11-13T12:26:47.125Z,34.8
2016-11-13T12:31:51.229Z,35.2
2016-11-13T12:36:55.663Z,35.7
2016-11-13T12:41:59.753Z,35.2
2016-11-13T12:47:03.846Z,34.5
2016-11-13T12:52:07.933Z,34.2
2016-11-13T12:57:12.388Z,34.1
2016-11-13T13:02:16.888Z,33.8
2016-11-13T13:07:21.003Z,33.6
2016-11-13T13:12:25.433Z,33.6
2016-11-13T13:17:29.520Z,34
2016-11-13T13:22:34.288Z,34.3
2016-11-13T13:27:38.374Z,34.3
2016-11-13T13:32:43.135Z,34.3
2016-11-13T13:37:47.548Z,34.4
2016-11-13T13:42:51.633Z,34
2016-11-13T13:47:56.054Z,33.5
2016-11-13T13:53:00.140Z,33.8
2016-11-13T13:58:04.565Z,33.4
2016-11-13T14:03:09.342Z,33.1
2016-11-13T14:08:13.790Z,32.5
2016-11-13T14:13:17.889Z,31.8
2016-11-13T14:18:22.312Z,31.5
2016-11-13T14:23:26.395Z,31.6
2016-11-13T14:28:30.817Z,32.3
2016-11-13T14:33:34.902Z,33
2016-11-13T14:38:39.337Z,33.4
2016-11-13T14:43:44.070Z,33.7
2016-11-13T14:48:48.492Z,34
2016-11-13T14:53:52.913Z,34
2016-11-13T14:58:57.025Z,34.2
2016-11-13T15:04:01.441Z,34.4
2016-11-13T15:09:05.530Z,34.5
2016-11-13T15:14:09.970Z,34.7
2016-11-13T15:19:14.438Z,34.5
2016-11-13T15:24:18.910Z,34.5
2016-11-13T15:29:23.014Z,34.5
2016-11-13T15:34:27.096Z,34.4
2016-11-13T15:39:31.178Z,34.5
2016-11-13T15:44:36.084Z,34.6
2016-11-13T15:49:40.846Z,34.8
2016-11-13T15:54:45.259Z,35.4
2016-11-13T15:59:49.726Z,35.8
2016-11-13T16:04:54.162Z,35.9
2016-11-13T16:09:58.245Z,35.9
2016-11-13T16:15:02.658Z,35.9
2016-11-13T16:20:07.420Z,35.9
2016-11-13T16:25:11.508Z,36.1
2016-11-13T16:30:15.781Z,36.1
2016-11-13T16:35:19.865Z,36.1
2016-11-13T16:40:23.955Z,36.1
2016-11-13T16:45:28.420Z,36.1
2016-11-13T16:50:32.504Z,34.2
2016-11-13T16:55:37.258Z,35.3
2016-11-13T17:00:41.357Z,35.3
2016-11-13T17:05:45.440Z,35.7
2016-11-13T17:10:49.851Z,36.1
2016-11-13T17:15:54.262Z,36.3
2016-11-13T17:20:58.345Z,36.8
2016-11-13T17:26:03.095Z,37
2016-11-13T17:31:07.849Z,37.3
2016-11-13T17:36:11.928Z,37.4
2016-11-13T17:41:16.022Z,37.6
2016-11-13T17:46:20.597Z,37.8
2016-11-13T17:51:24.761Z,38.1
2016-11-13T17:56:29.508Z,36.5
2016-11-13T18:01:33.963Z,35.3
2016-11-13T18:06:38.417Z,34.8
2016-11-13T18:11:42.868Z,34.3
2016-11-13T18:16:46.970Z,34.1
2016-11-13T18:21:51.390Z,33.9
2016-11-13T18:26:55.478Z,33.9
2016-11-13T18:32:00.236Z,34.1
2016-11-13T18:37:04.319Z,34.1
2016-11-13T18:42:08.665Z,34.3
2016-11-13T18:47:12.773Z,34.4
2016-11-13T18:52:17.185Z,34.6
2016-11-13T18:57:21.635Z,35.1
2016-11-13T19:02:25.734Z,35.2
2016-11-13T19:07:30.476Z,35.2
2016-11-13T19:12:34.562Z,35.2
2016-11-13T19:17:38.645Z,35.3
2016-11-13T19:22:43.070Z,35.2
2016-11-13T19:27:47.154Z,35.1
2016-11-13T19:32:51.236Z,35.2
2016-11-13T19:37:55.317Z,35.2
2016-11-13T19:42:59.399Z,35.4
2016-11-13T19:48:03.480Z,35.5
2016-11-13T19:53:07.567Z,35.5
2016-11-13T19:58:11.986Z,35.6
2016-11-13T20:03:16.404Z,35.7
2016-11-13T20:08:20.821Z,35.7
2016-11-13T20:13:25.579Z,35.8
2016-11-13T20:18:29.681Z,35.7
2016-11-13T20:23:34.113Z,35.8
2016-11-13T20:28:38.196Z,35.9
2016-11-13T20:33:42.623Z,35.9
2016-11-13T20:38:47.379Z,35.9
2016-11-13T20:43:51.847Z,36
2016-11-13T20:48:55.949Z,36
2016-11-13T20:54:00.375Z,35.9
2016-11-13T20:59:04.459Z,35.7
2016-11-13T21:04:08.587Z,35.6
2016-11-13T21:09:12.951Z,35.6
2016-11-13T21:14:17.028Z,35.7
2016-11-13T21:19:21.157Z,35.6
2016-11-13T21:24:25.911Z,35.5
2016-11-13T21:29:30.722Z,35.3
2016-11-13T21:34:34.811Z,35.3
2016-11-13T21:39:39.282Z,35.3
2016-11-13T21:44:43.382Z,35.3
2016-11-13T21:49:47.810Z,35.3
2016-11-13T21:54:51.900Z,35.2
2016-11-13T21:59:56.001Z,35.2
2016-11-13T22:05:00.089Z,35.1
2016-11-13T22:10:04.515Z,35.1
2016-11-13T22:15:09.600Z,35.3
2016-11-13T22:20:13.677Z,35.3
2016-11-13T22:25:17.759Z,35.3
2016-11-13T22:30:21.840Z,35.3
2016-11-13T22:35:25.916Z,35.3
2016-11-13T22:40:30.345Z,35.2
2016-11-13T22:45:34.431Z,35.2
2016-11-13T22:50:38.841Z,35.2
2016-11-13T22:55:42.924Z,35.2
2016-11-13T23:00:47.005Z,35.2
2016-11-13T23:05:51.420Z,35.2
2016-11-13T23:10:55.503Z,35.2
2016-11-13T23:16:00.260Z,35.2
2016-11-13T23:21:04.349Z,35.2
2016-11-13T23:26:08.431Z,35.1
2016-11-13T23:31:12.510Z,35.1
2016-11-13T23:36:17.600Z,35.1
2016-11-13T23:41:21.685Z,35.1
2016-11-13T23:46:25.766Z,35.1
2016-11-13T23:51:29.843Z,35
2016-11-13T23:56:34.260Z,35
